Time;durP1;ratioP1;P1;durP2;ratioP2;P2;SDS_P1;SDS_P2;PMS_P1;PMS_P2;Temp;Humidity;BMP_temperature;BMP_pressure;BME280_temperature;BME280_humidity;BME280_pressure;Samples;Min_cycle;Max_cycle;Signal;HPM_P1;HPM_P2
2022/03/17 00:00:34;;;;;;;31.63;25.00;;;;;;;8.27;58.07;97238.69;4939786;29;20056;-81
2022/03/17 00:03:02;;;;;;;34.67;25.13;;;;;;;8.25;58.32;97231.84;4939724;29;20051;-78
2022/03/17 00:05:29;;;;;;;33.75;26.92;;;;;;;8.27;58.22;97243.88;4939128;29;20052;-78
2022/03/17 00:07:58;;;;;;;33.60;25.92;;;;;;;8.22;57.94;97252.94;4938387;29;20066;-78
2022/03/17 00:10:26;;;;;;;33.15;25.30;;;;;;;8.14;58.32;97245.06;4938723;29;20434;-77
2022/03/17 00:12:54;;;;;;;34.38;25.65;;;;;;;8.09;58.28;97247.31;4938006;29;20052;-78
2022/03/17 00:15:21;;;;;;;32.22;25.35;;;;;;;8.09;58.59;97241.28;5060462;23;20066;-77
2022/03/17 00:17:49;;;;;;;34.80;26.42;;;;;;;8.09;58.31;97241.28;4973075;28;20051;-77
2022/03/17 00:20:16;;;;;;;35.92;25.55;;;;;;;8.04;58.34;97233.94;4983355;28;20051;-77
2022/03/17 00:22:44;;;;;;;35.67;27.13;;;;;;;8.00;58.75;97232.59;4990014;28;20133;-77
2022/03/17 00:25:12;;;;;;;36.17;26.27;;;;;;;7.97;58.51;97238.91;4965658;28;20047;-77
2022/03/17 00:27:41;;;;;;;32.72;25.60;;;;;;;7.93;58.55;97231.56;4958225;28;20062;-77
2022/03/17 00:30:09;;;;;;;32.78;25.38;;;;;;;7.89;58.67;97225.03;4970008;28;20051;-77
2022/03/17 00:32:37;;;;;;;33.38;26.13;;;;;;;7.83;58.46;97222.09;4964552;28;20520;-77
2022/03/17 00:37:51;;;;;;;31.08;24.80;;;;;;;7.79;58.63;97220.75;4957632;28;20051;-77
2022/03/17 00:40:19;;;;;;;34.35;25.63;;;;;;;7.79;59.03;97217.34;4958239;28;20144;-77
2022/03/17 00:42:48;;;;;;;33.67;24.88;;;;;;;7.79;58.75;97225.94;4958138;28;20073;-77
2022/03/17 00:45:15;;;;;;;32.60;25.08;;;;;;;7.75;58.50;97214.22;4957737;28;20047;-77
2022/03/17 00:47:43;;;;;;;29.20;22.63;;;;;;;7.73;58.79;97207.53;4957522;28;20398;-77
2022/03/17 00:50:11;;;;;;;33.13;25.10;;;;;;;7.71;58.56;97205.09;4957974;28;20098;-77
2022/03/17 00:52:38;;;;;;;34.28;25.40;;;;;;;7.68;58.92;97210.59;4957757;28;20051;-77
2022/03/17 00:55:07;;;;;;;33.90;24.73;;;;;;;7.66;58.80;97204.72;4957578;28;20051;-77
2022/03/17 00:57:37;;;;;;;32.78;25.05;;;;;;;7.66;58.64;97194.34;4956801;28;20059;-77
2022/03/17 01:00:08;;;;;;;30.45;24.25;;;;;;;7.70;59.02;97190.50;4957844;28;20055;-77
2022/03/17 01:02:35;;;;;;;32.22;23.65;;;;;;;7.71;58.42;97192.09;4957781;28;20051;-76
2022/03/17 01:05:04;;;;;;;32.17;24.85;;;;;;;7.71;58.35;97186.09;4957792;28;20417;-77
2022/03/17 01:07:32;;;;;;;32.28;24.67;;;;;;;7.68;58.19;97192.41;4957165;28;20054;-77
2022/03/17 01:10:00;;;;;;;31.90;23.08;;;;;;;7.64;58.42;97198.88;4957262;28;20051;-77
2022/03/17 01:12:28;;;;;;;34.00;24.45;;;;;;;7.61;58.40;97196.56;4957189;28;20494;-77
2022/03/17 01:14:55;;;;;;;32.63;24.83;;;;;;;7.57;57.93;97195.25;4957046;28;20054;-78
2022/03/17 01:17:24;;;;;;;32.80;25.27;;;;;;;7.55;58.50;97187.59;4956867;28;20055;-77
2022/03/17 01:19:52;;;;;;;32.65;24.70;;;;;;;7.53;58.15;97184.31;4957173;28;20055;-78
2022/03/17 01:22:21;;;;;;;34.38;25.67;;;;;;;7.50;58.34;97188.97;4956937;28;20067;-78
2022/03/17 01:24:51;;;;;;;30.75;23.40;;;;;;;7.47;58.41;97173.72;4957160;28;20049;-78
2022/03/17 01:27:20;;;;;;;31.42;23.38;;;;;;;7.49;58.18;97176.97;4956780;28;20047;-78
2022/03/17 01:29:47;;;;;;;31.83;24.02;;;;;;;7.50;58.08;97169.06;4957294;28;20055;-78
2022/03/17 01:32:15;;;;;;;29.45;22.83;;;;;;;7.50;58.19;97168.22;4955957;28;20047;-77
2022/03/17 01:34:44;;;;;;;31.02;22.42;;;;;;;7.49;58.16;97170.00;4957070;28;20055;-77
2022/03/17 01:37:12;;;;;;;30.52;23.02;;;;;;;7.48;57.70;97170.97;4956091;28;20058;-77
2022/03/17 01:39:39;;;;;;;30.15;23.30;;;;;;;7.45;57.83;97171.25;4956982;28;20106;-77
2022/03/17 01:42:10;;;;;;;31.70;24.30;;;;;;;7.42;57.98;97180.16;4956782;28;20486;-77
2022/03/17 01:44:38;;;;;;;31.92;25.45;;;;;;;7.43;58.03;97179.22;4956499;28;20044;-77
2022/03/17 01:49:49;;;;;;;30.73;23.50;;;;;;;7.47;58.04;97191.88;4954850;28;20051;-77
2022/03/17 01:52:17;;;;;;;29.77;23.98;;;;;;;7.48;58.66;97193.50;4956644;28;20055;-77
2022/03/17 01:54:45;;;;;;;30.58;23.27;;;;;;;7.51;58.16;97186.25;4956461;28;20051;-77
2022/03/17 01:57:13;;;;;;;30.90;23.90;;;;;;;7.50;57.96;97183.78;4955748;28;20051;-77
2022/03/17 01:59:41;;;;;;;30.95;23.25;;;;;;;7.50;58.26;97183.78;4956434;28;20457;-77
2022/03/17 02:02:11;;;;;;;29.90;23.00;;;;;;;7.45;58.30;97186.03;4956374;28;20058;-77
2022/03/17 02:04:40;;;;;;;34.67;25.23;;;;;;;7.42;58.38;97177.56;4956596;28;20043;-77
2022/03/17 02:07:11;;;;;;;32.25;24.45;;;;;;;7.38;58.63;97181.41;4955600;28;20051;-77
2022/03/17 02:09:39;;;;;;;31.45;23.63;;;;;;;7.39;58.47;97188.25;4956570;28;20561;-77
2022/03/17 02:14:54;;;;;;;33.22;24.50;;;;;;;7.41;58.56;97186.34;4955815;28;20533;-77
2022/03/17 02:17:23;;;;;;;34.30;24.95;;;;;;;7.39;58.21;97193.44;4955384;28;20047;-77
2022/03/17 02:19:51;;;;;;;32.60;24.17;;;;;;;7.37;58.27;97195.38;4955888;28;20106;-77
2022/03/17 02:22:22;;;;;;;31.95;24.15;;;;;;;7.36;58.70;97196.31;4956032;28;20059;-77
2022/03/17 02:27:41;;;;;;;33.33;24.60;;;;;;;7.35;58.54;97197.28;4955332;28;20051;-77
2022/03/17 02:30:10;;;;;;;35.05;23.95;;;;;;;7.35;58.50;97215.47;4955915;28;20051;-77
2022/03/17 02:32:38;;;;;;;33.88;25.75;;;;;;;7.37;58.54;97210.94;4955691;28;20066;-79
2022/03/17 02:35:09;;;;;;;36.63;25.80;;;;;;;7.38;59.14;97203.97;4955544;28;20055;-77
2022/03/17 02:37:37;;;;;;;32.63;24.48;;;;;;;7.39;59.04;97219.41;4954927;28;20469;-77
2022/03/17 02:40:09;;;;;;;36.00;26.05;;;;;;;7.41;59.13;97220.06;4955595;28;20047;-77
2022/03/17 02:42:38;;;;;;;34.45;24.67;;;;;;;7.38;58.77;97215.16;4955930;28;20410;-77
2022/03/17 02:45:10;;;;;;;34.22;24.85;;;;;;;7.37;59.22;97215.31;4955456;28;20078;-77
2022/03/17 02:47:38;;;;;;;34.30;26.05;;;;;;;7.38;59.24;97230.72;4954887;28;20399;-77
2022/03/17 02:50:07;;;;;;;32.17;24.40;;;;;;;7.37;58.90;97229.09;4955504;28;20054;-77
2022/03/17 02:52:34;;;;;;;35.25;24.15;;;;;;;7.34;59.10;97224.19;4955302;28;20051;-77
2022/03/17 02:55:04;;;;;;;33.30;25.67;;;;;;;7.36;59.13;97224.06;4955465;28;20055;-77
2022/03/17 02:57:32;;;;;;;35.30;23.65;;;;;;;7.36;59.09;97229.25;4954871;28;20055;-77
2022/03/17 03:00:03;;;;;;;36.78;25.25;;;;;;;7.34;59.13;97236.34;4955397;28;20425;-79
2022/03/17 03:02:31;;;;;;;32.55;24.60;;;;;;;7.30;59.47;97241.00;4956865;28;20066;-79
2022/03/17 03:04:58;;;;;;;34.13;25.15;;;;;;;7.31;59.39;97234.88;4957872;28;20057;-79
2022/03/17 03:07:26;;;;;;;33.88;25.15;;;;;;;7.33;59.44;97243.34;4954899;28;20048;-79
2022/03/17 03:09:55;;;;;;;33.42;25.48;;;;;;;7.30;59.29;97242.78;4955220;28;20485;-79
2022/03/17 03:12:23;;;;;;;37.38;24.95;;;;;;;7.31;59.22;97260.03;4966682;28;20058;-77
2022/03/17 03:14:52;;;;;;;33.25;24.85;;;;;;;7.33;59.62;97251.13;4962557;28;20051;-77
2022/03/17 03:17:21;;;;;;;30.83;23.67;;;;;;;7.37;59.59;97251.66;4957792;28;20043;-77
2022/03/17 03:19:48;;;;;;;34.13;25.35;;;;;;;7.38;59.12;97251.50;4955420;28;20051;-77
2022/03/17 03:22:18;;;;;;;34.83;26.45;;;;;;;7.41;59.76;97256.41;4955335;28;20059;-77
2022/03/17 03:24:46;;;;;;;33.50;25.17;;;;;;;7.45;59.02;97263.91;4955134;28;20047;-77
2022/03/17 03:27:13;;;;;;;35.72;25.95;;;;;;;7.44;58.88;97257.91;4956526;28;20082;-78
2022/03/17 03:29:41;;;;;;;36.95;26.85;;;;;;;7.41;59.19;97246.03;4955217;28;20413;-77
2022/03/17 03:32:10;;;;;;;36.08;25.85;;;;;;;7.42;59.57;97247.66;4955031;28;20055;-77
2022/03/17 03:34:38;;;;;;;32.83;25.00;;;;;;;7.44;59.05;97257.91;4954531;28;20055;-77
2022/03/17 03:37:22;;;;;;;32.38;24.88;;;;;;;7.46;59.12;97252.56;4953873;28;20051;-77
2022/03/17 03:39:51;;;;;;;34.28;26.08;;;;;;;7.46;59.04;97255.97;4954716;28;20055;-77
2022/03/17 03:42:19;;;;;;;32.80;25.35;;;;;;;7.43;58.95;97262.28;4954588;28;20062;-77
2022/03/17 03:44:47;;;;;;;32.30;24.85;;;;;;;7.47;59.30;97264.56;4954409;28;20509;-77
2022/03/17 03:47:17;;;;;;;33.03;24.80;;;;;;;7.49;59.29;97278.22;4953899;28;20556;-77
2022/03/17 03:49:44;;;;;;;33.42;25.02;;;;;;;7.49;58.76;97275.63;4954674;28;20477;-77
2022/03/17 03:52:14;;;;;;;32.55;25.38;;;;;;;7.46;59.12;97276.75;4954338;28;20105;-77
2022/03/17 03:54:42;;;;;;;32.13;25.10;;;;;;;7.45;59.08;97279.47;4954122;28;20051;-77
2022/03/17 03:57:10;;;;;;;33.63;25.17;;;;;;;7.48;58.96;97280.00;4953508;28;20043;-77
2022/03/17 03:59:38;;;;;;;35.05;25.83;;;;;;;7.48;59.23;97274.81;4954590;28;20473;-77
2022/03/17 04:02:07;;;;;;;34.85;25.13;;;;;;;7.49;58.96;97279.03;4955284;28;20054;-77
2022/03/17 04:04:39;;;;;;;34.05;25.42;;;;;;;7.52;59.02;97280.50;4960010;28;20138;-78
2022/03/17 04:07:10;;;;;;;32.75;24.55;;;;;;;7.52;58.70;97285.72;4958354;28;20058;-77
2022/03/17 04:09:40;;;;;;;35.67;26.48;;;;;;;7.51;59.04;97279.69;4958916;28;20062;-78
2022/03/17 04:12:10;;;;;;;32.08;24.90;;;;;;;7.49;59.18;97286.81;4957865;28;20071;-78
2022/03/17 04:14:37;;;;;;;33.33;26.45;;;;;;;7.47;59.00;97282.75;4957088;28;20059;-78
2022/03/17 04:17:05;;;;;;;32.75;26.00;;;;;;;7.45;58.88;97285.47;4953284;28;20461;-77
2022/03/17 04:19:33;;;;;;;36.60;24.60;;;;;;;7.40;58.84;97280.72;4954350;28;20061;-77
2022/03/17 04:22:02;;;;;;;34.53;25.33;;;;;;;7.37;59.22;97283.63;4954153;28;20055;-78
2022/03/17 04:24:30;;;;;;;33.55;25.42;;;;;;;7.34;59.22;97283.88;4954191;28;20066;-77
2022/03/17 04:26:57;;;;;;;33.50;24.60;;;;;;;7.29;59.13;97278.31;4953933;28;20054;-77
2022/03/17 04:29:25;;;;;;;33.08;25.63;;;;;;;7.27;59.21;97282.03;4957103;28;20062;-77
2022/03/17 04:31:52;;;;;;;36.20;24.83;;;;;;;7.23;59.59;97287.47;4959066;28;20119;-77
2022/03/17 04:34:20;;;;;;;36.85;26.75;;;;;;;7.20;59.42;97290.38;4958596;28;20426;-78
2022/03/17 04:36:47;;;;;;;33.33;24.83;;;;;;;7.22;59.39;97279.88;4957815;28;20071;-77
2022/03/17 04:39:16;;;;;;;37.75;26.75;;;;;;;7.18;59.72;97278.50;4954924;28;20054;-77
2022/03/17 04:41:44;;;;;;;35.50;25.35;;;;;;;7.17;59.62;97277.69;4954073;28;20058;-77
2022/03/17 04:44:13;;;;;;;35.05;26.27;;;;;;;7.21;59.78;97278.22;4953912;28;20059;-77
2022/03/17 04:46:41;;;;;;;33.35;25.70;;;;;;;7.20;59.65;97279.19;4953245;28;20142;-77
2022/03/17 04:49:10;;;;;;;33.10;25.35;;;;;;;7.20;59.92;97276.59;4956281;28;20476;-77
2022/03/17 04:51:38;;;;;;;33.05;25.70;;;;;;;7.22;59.70;97285.06;4955977;28;20058;-77
2022/03/17 04:54:06;;;;;;;34.75;26.20;;;;;;;7.21;59.40;97291.19;4954713;28;20074;-77
2022/03/17 04:56:35;;;;;;;35.45;26.50;;;;;;;7.18;60.10;97286.31;4953546;28;20054;-77
2022/03/17 04:59:03;;;;;;;38.75;27.60;;;;;;;7.18;60.11;97289.69;4953680;28;20055;-77
2022/03/17 05:01:30;;;;;;;34.40;25.67;;;;;;;7.17;60.30;97292.44;4953761;28;20063;-77
2022/03/17 05:03:58;;;;;;;34.10;25.70;;;;;;;7.21;59.77;97293.78;4954084;28;20063;-77
2022/03/17 05:06:26;;;;;;;35.45;26.38;;;;;;;7.26;59.94;97298.53;4953580;28;20051;-77
2022/03/17 05:08:53;;;;;;;35.35;26.83;;;;;;;7.22;60.00;97295.44;4957442;28;20051;-77
2022/03/17 05:11:21;;;;;;;35.92;26.02;;;;;;;7.22;60.02;97305.81;4957416;28;20059;-77
2022/03/17 05:13:51;;;;;;;34.55;26.63;;;;;;;7.26;60.09;97312.34;4956784;28;20047;-77
2022/03/17 05:16:19;;;;;;;39.72;26.08;;;;;;;7.27;59.67;97307.97;4956775;28;20055;-77
2022/03/17 05:18:47;;;;;;;38.67;27.42;;;;;;;7.29;59.98;97317.25;4954445;28;20047;-77
2022/03/17 05:21:16;;;;;;;35.13;26.92;;;;;;;7.31;59.94;97324.91;4938073;29;20066;-77
2022/03/17 05:23:43;;;;;;;37.65;27.73;;;;;;;7.29;59.47;97322.44;4947902;28;20051;-77
2022/03/17 05:26:11;;;;;;;36.95;27.48;;;;;;;7.27;59.98;97321.75;4956261;28;20051;-77
2022/03/17 05:28:38;;;;;;;37.70;28.65;;;;;;;7.31;60.22;97323.13;4957150;28;20047;-77
2022/03/17 05:31:07;;;;;;;38.08;28.25;;;;;;;7.34;60.10;97332.38;4957018;28;20058;-77
2022/03/17 05:33:35;;;;;;;39.38;28.80;;;;;;;7.34;60.02;97340.19;4956797;28;20057;-77
2022/03/17 05:36:05;;;;;;;38.13;27.48;;;;;;;7.35;60.23;97332.25;4956507;28;20054;-76
2022/03/17 05:38:32;;;;;;;36.90;28.25;;;;;;;7.36;60.35;97336.47;4956772;28;20051;-77
2022/03/17 05:41:00;;;;;;;38.03;28.63;;;;;;;7.35;59.91;97332.25;4956796;28;20048;-77
2022/03/17 05:43:27;;;;;;;39.65;29.95;;;;;;;7.32;60.26;97342.91;4961078;28;20047;-78
2022/03/17 05:45:55;;;;;;;39.33;29.08;;;;;;;7.29;60.36;97338.00;4972212;28;20047;-78
2022/03/17 05:48:24;;;;;;;42.63;31.55;;;;;;;7.26;60.85;97334.88;4964785;28;20047;-78
2022/03/17 05:50:54;;;;;;;41.90;30.90;;;;;;;7.22;60.46;97340.34;4959201;28;20058;-79
2022/03/17 05:53:22;;;;;;;43.17;30.83;;;;;;;7.18;60.77;97335.59;4962710;28;20058;-81
2022/03/17 05:55:50;;;;;;;42.03;29.83;;;;;;;7.13;60.75;97343.00;4972010;28;20052;-80
2022/03/17 05:58:17;;;;;;;40.40;29.85;;;;;;;7.09;60.82;97346.84;4958291;28;20049;-78
2022/03/17 06:00:45;;;;;;;40.10;30.27;;;;;;;7.05;61.21;97351.47;4944838;29;20051;-78
2022/03/17 06:03:13;;;;;;;41.08;30.50;;;;;;;7.06;61.79;97349.69;4957855;29;20051;-79
2022/03/17 06:05:43;;;;;;;42.42;30.73;;;;;;;7.08;61.40;97355.56;4957867;28;20055;-79
2022/03/17 06:08:11;;;;;;;40.83;30.42;;;;;;;7.09;61.28;97352.03;4957852;28;20058;-80
2022/03/17 06:10:40;;;;;;;41.25;30.13;;;;;;;7.11;61.51;97348.31;4959022;28;20429;-79
2022/03/17 06:13:08;;;;;;;43.78;31.92;;;;;;;7.07;61.34;97352.16;4957537;28;20051;-78
2022/03/17 06:15:36;;;;;;;41.65;30.02;;;;;;;7.01;61.79;97350.94;4956551;28;20051;-78
2022/03/17 06:18:06;;;;;;;45.72;31.52;;;;;;;7.01;61.39;97352.72;4965338;23;20051;-83
2022/03/17 06:20:37;;;;;;;41.53;29.58;;;;;;;6.97;61.85;97354.75;4945600;29;20414;-80
2022/03/17 06:23:08;;;;;;;42.38;30.65;;;;;;;6.98;62.25;97361.59;4942635;29;20051;-80
2022/03/17 06:25:37;;;;;;;42.00;30.30;;;;;;;7.00;62.20;97358.88;4940139;29;20050;-80
2022/03/17 06:28:08;;;;;;;41.60;31.10;;;;;;;7.06;62.09;97370.44;4923670;29;20055;-83
2022/03/17 06:30:36;;;;;;;38.38;28.83;;;;;;;7.07;61.88;97369.50;4922470;29;20499;-79
2022/03/17 06:33:05;;;;;;;39.30;29.63;;;;;;;7.07;62.16;97375.50;4921059;29;20120;-81
2022/03/17 06:35:34;;;;;;;39.05;29.75;;;;;;;7.05;61.75;97372.22;4921977;29;20059;-78
2022/03/17 06:38:04;;;;;;;38.33;29.52;;;;;;;7.03;61.99;97387.13;4923755;29;20418;-87
2022/03/17 06:40:35;;;;;;;39.05;29.80;;;;;;;6.98;61.71;97390.13;4924460;29;20052;-86
2022/03/17 06:43:03;;;;;;;41.58;30.13;;;;;;;6.96;62.29;97389.44;4922948;29;20059;-84
2022/03/17 06:45:30;;;;;;;41.90;30.67;;;;;;;6.96;62.31;97393.81;4921343;29;20063;-86
2022/03/17 06:47:58;;;;;;;44.53;31.83;;;;;;;6.99;62.30;97383.97;4922005;29;20090;-83
2022/03/17 06:50:26;;;;;;;40.90;30.75;;;;;;;7.03;61.89;97388.91;4922344;29;20060;-80
2022/03/17 06:52:54;;;;;;;41.70;30.35;;;;;;;7.04;62.37;97380.13;4922533;29;20048;-79
2022/03/17 06:55:22;;;;;;;39.38;28.85;;;;;;;7.05;62.18;97371.41;4923786;29;20427;-86
2022/03/17 06:57:51;;;;;;;39.42;29.38;;;;;;;7.10;61.87;97382.19;4922693;29;20056;-78
2022/03/17 07:00:20;;;;;;;42.83;30.42;;;;;;;7.14;62.09;97376.56;4924268;29;20058;-80
2022/03/17 07:02:47;;;;;;;40.22;29.27;;;;;;;7.18;61.76;97379.72;4926350;29;20052;-82
2022/03/17 07:05:15;;;;;;;44.20;31.60;;;;;;;7.21;61.46;97388.03;4925323;29;20554;-80
2022/03/17 07:07:44;;;;;;;38.63;29.15;;;;;;;7.22;61.92;97388.84;4924595;29;20520;-87
2022/03/17 07:10:12;;;;;;;38.70;29.02;;;;;;;7.23;61.87;97393.88;4924833;29;20056;-80
2022/03/17 07:12:41;;;;;;;40.03;29.02;;;;;;;7.29;61.28;97396.88;4924715;29;20054;-82
2022/03/17 07:15:11;;;;;;;42.58;29.42;;;;;;;7.32;61.38;97401.78;4927093;29;20056;-87
2022/03/17 07:17:40;;;;;;;39.55;29.42;;;;;;;7.32;61.43;97402.59;4925883;29;20051;-86
2022/03/17 07:20:10;;;;;;;41.47;30.05;;;;;;;7.33;61.06;97401.66;4928386;29;20104;-86
2022/03/17 07:22:39;;;;;;;39.20;30.05;;;;;;;7.36;61.52;97409.16;4928880;29;20426;-85
2022/03/17 07:25:09;;;;;;;40.00;29.58;;;;;;;7.40;61.05;97412.28;4929763;29;20128;-84
2022/03/17 07:27:40;;;;;;;43.40;30.58;;;;;;;7.45;61.09;97417.03;4929348;29;20059;-82
2022/03/17 07:30:10;;;;;;;42.58;29.15;;;;;;;7.47;60.97;97428.09;4929883;29;20142;-83
2022/03/17 07:32:38;;;;;;;41.03;29.75;;;;;;;7.48;61.00;97419.34;4929529;29;20047;-82
2022/03/17 07:35:07;;;;;;;40.30;30.15;;;;;;;7.47;61.39;97420.31;4930606;29;20056;-84
2022/03/17 07:37:34;;;;;;;40.60;29.55;;;;;;;7.50;61.31;97425.22;4929857;29;20120;-83
2022/03/17 07:40:02;;;;;;;40.75;30.15;;;;;;;7.50;61.04;97422.63;4930825;29;20503;-82
2022/03/17 07:42:29;;;;;;;44.15;28.33;;;;;;;7.48;61.43;97427.97;4930698;29;20115;-81
2022/03/17 07:44:57;;;;;;;44.05;29.92;;;;;;;7.50;61.19;97427.81;4930599;29;20056;-81
2022/03/17 07:47:26;;;;;;;47.03;31.13;;;;;;;7.51;60.93;97440.66;4929191;29;20063;-83
2022/03/17 07:49:53;;;;;;;42.33;29.83;;;;;;;7.54;61.66;97430.00;4929791;29;20070;-83
2022/03/17 07:52:21;;;;;;;43.20;29.05;;;;;;;7.56;61.17;97422.88;4929738;29;20078;-81
2022/03/17 07:54:49;;;;;;;41.55;28.70;;;;;;;7.57;61.01;97423.72;4929392;29;20069;-82
2022/03/17 07:57:16;;;;;;;43.58;29.00;;;;;;;7.59;60.87;97427.00;4930171;29;20063;-83
2022/03/17 07:59:49;;;;;;;43.13;28.55;;;;;;;7.59;60.92;97437.38;4930675;29;20044;-80
2022/03/17 08:02:19;;;;;;;43.45;29.38;;;;;;;7.61;60.61;97438.84;4930217;29;20054;-81
2022/03/17 08:04:50;;;;;;;39.42;28.63;;;;;;;7.61;60.54;97445.84;4929631;29;20092;-84
2022/03/17 08:07:17;;;;;;;38.85;27.20;;;;;;;7.61;60.80;97453.63;4929444;29;20111;-79
2022/03/17 08:09:45;;;;;;;38.70;29.23;;;;;;;7.64;60.53;97459.34;4930321;29;20581;-84
2022/03/17 08:12:13;;;;;;;37.78;28.60;;;;;;;7.68;60.81;97459.88;4930265;29;20056;-81
2022/03/17 08:14:40;;;;;;;39.95;29.60;;;;;;;7.73;60.78;97457.66;4931161;29;20044;-83
2022/03/17 08:17:09;;;;;;;43.10;28.83;;;;;;;7.75;60.71;97458.34;4930094;29;20060;-81
2022/03/17 08:19:37;;;;;;;40.67;28.85;;;;;;;7.80;60.62;97455.31;4930941;29;20099;-84
2022/03/17 08:22:09;;;;;;;39.33;29.48;;;;;;;7.85;60.98;97460.91;4933941;29;20056;-82
2022/03/17 08:24:37;;;;;;;40.22;29.60;;;;;;;7.90;60.51;97460.50;4931983;29;20059;-81
2022/03/17 08:27:04;;;;;;;42.20;29.60;;;;;;;7.92;59.97;97474.97;4931020;29;20052;-82
2022/03/17 08:29:32;;;;;;;40.00;29.55;;;;;;;7.97;60.44;97479.72;4930495;29;20048;-83
2022/03/17 08:32:00;;;;;;;37.22;28.48;;;;;;;8.02;60.80;97474.91;4930653;29;20060;-82
2022/03/17 08:34:27;;;;;;;38.85;28.83;;;;;;;8.08;60.44;97489.94;4930981;29;20195;-82
2022/03/17 08:36:56;;;;;;;40.50;29.33;;;;;;;8.14;60.32;97491.94;4930288;29;20052;-81
2022/03/17 08:39:25;;;;;;;42.00;27.33;;;;;;;8.15;60.48;97488.38;4930148;29;20118;-80
2022/03/17 08:41:53;;;;;;;37.33;26.85;;;;;;;8.20;59.82;97493.97;4930551;29;20052;-85
2022/03/17 08:44:21;;;;;;;34.80;25.20;;;;;;;8.24;59.76;97502.28;4932188;29;20052;-79
2022/03/17 08:49:34;;;;;;;40.00;27.40;;;;;;;8.30;58.96;97501.72;4932318;29;20048;-81
2022/03/17 08:52:03;;;;;;;36.08;25.55;;;;;;;8.33;59.11;97505.81;4932282;29;20059;-79
2022/03/17 08:54:33;;;;;;;45.22;27.30;;;;;;;8.36;58.68;97514.13;4932065;29;20430;-80
2022/03/17 08:57:03;;;;;;;37.55;26.77;;;;;;;8.39;59.88;97513.03;4930707;29;20056;-80
2022/03/17 08:59:33;;;;;;;36.20;26.52;;;;;;;8.46;60.53;97508.91;4931010;29;20112;-78
2022/03/17 09:02:01;;;;;;;35.55;25.85;;;;;;;8.55;59.37;97512.41;4931597;29;20052;-79
2022/03/17 09:04:29;;;;;;;35.38;26.60;;;;;;;8.61;59.13;97520.44;4931082;29;20056;-80
2022/03/17 09:06:59;;;;;;;35.42;27.42;;;;;;;8.69;59.51;97524.13;4930539;29;20056;-83
2022/03/17 09:09:26;;;;;;;38.55;27.25;;;;;;;8.74;59.50;97514.06;4930015;29;20527;-79
2022/03/17 09:11:56;;;;;;;35.67;27.38;;;;;;;8.77;58.18;97521.59;4929180;29;20052;-82
2022/03/17 09:14:24;;;;;;;35.00;26.65;;;;;;;8.77;58.33;97527.63;4934299;29;20052;-83
2022/03/17 09:16:51;;;;;;;34.90;27.25;;;;;;;8.82;58.94;97521.97;4943041;29;20055;-87
2022/03/17 09:19:19;;;;;;;37.20;26.45;;;;;;;8.87;58.21;97532.75;4941225;29;20044;-85
2022/03/17 09:21:47;;;;;;;33.60;26.20;;;;;;;8.91;58.16;97525.47;4935084;29;20066;-83
2022/03/17 09:24:15;;;;;;;35.58;26.23;;;;;;;8.93;57.50;97528.75;4933444;29;20048;-82
2022/03/17 09:26:42;;;;;;;32.67;25.38;;;;;;;8.94;58.36;97518.16;4933131;29;20052;-80
2022/03/17 09:29:11;;;;;;;35.08;26.20;;;;;;;9.00;59.15;97524.56;4934462;29;20056;-80
2022/03/17 09:31:39;;;;;;;33.60;26.85;;;;;;;9.06;60.47;97531.78;4933306;29;20063;-79
2022/03/17 09:34:07;;;;;;;31.33;26.15;;;;;;;9.11;58.87;97537.34;4932405;29;20082;-81
2022/03/17 09:36:34;;;;;;;34.55;26.65;;;;;;;9.17;58.44;97528.94;4931313;29;20056;-86
2022/03/17 09:41:47;;;;;;;38.40;27.30;;;;;;;9.26;57.59;97533.25;4930903;29;20052;-84
2022/03/17 09:44:16;;;;;;;32.83;26.00;;;;;;;9.27;57.56;97539.28;4931337;29;20052;-85
2022/03/17 09:46:45;;;;;;;34.67;24.08;;;;;;;9.30;57.11;97538.19;4929603;29;20051;-82
2022/03/17 09:49:12;;;;;;;36.03;26.52;;;;;;;9.34;58.78;97534.31;4930228;29;20120;-81
2022/03/17 09:51:42;;;;;;;32.70;25.73;;;;;;;9.40;58.57;97536.28;4929861;29;20071;-81
2022/03/17 09:54:10;;;;;;;38.83;26.42;;;;;;;9.42;57.34;97535.19;4928104;29;20052;-78
2022/03/17 09:56:38;;;;;;;38.17;26.83;;;;;;;9.37;56.98;97529.59;4929815;29;20075;-83
2022/03/17 09:59:06;;;;;;;40.75;28.75;;;;;;;9.34;56.68;97529.09;4930211;29;20056;-81
2022/03/17 10:01:36;;;;;;;38.33;27.27;;;;;;;9.29;56.52;97534.72;4929610;29;20363;-78
2022/03/17 10:04:06;;;;;;;34.90;26.88;;;;;;;9.23;56.65;97540.56;4929633;29;20059;-82
2022/03/17 10:06:36;;;;;;;37.78;26.70;;;;;;;9.20;56.98;97525.22;4927876;29;20060;-86
2022/03/17 10:09:04;;;;;;;41.97;27.38;;;;;;;9.16;57.01;97539.50;4928219;29;20056;-80
2022/03/17 10:11:37;;;;;;;35.25;27.15;;;;;;;9.16;57.17;97540.34;4927883;29;20048;-81
2022/03/17 10:14:06;;;;;;;38.35;27.00;;;;;;;9.19;57.29;97547.84;4928387;29;20067;-80
2022/03/17 10:16:38;;;;;;;37.92;26.67;;;;;;;9.22;57.14;97549.31;4927611;29;20060;-79
2022/03/17 10:19:09;;;;;;;39.15;27.80;;;;;;;9.24;57.28;97544.78;4929647;29;20080;-80
2022/03/17 10:21:38;;;;;;;40.42;26.83;;;;;;;9.26;57.35;97537.66;4929145;29;20058;-81
2022/03/17 10:24:08;;;;;;;38.95;27.42;;;;;;;9.31;58.76;97540.59;4929379;29;20052;-84
2022/03/17 10:26:40;;;;;;;39.55;28.08;;;;;;;9.40;59.25;97546.69;4929318;29;20064;-81
2022/03/17 10:29:10;;;;;;;38.28;26.48;;;;;;;9.43;57.57;97547.22;4926886;29;20066;-79
2022/03/17 10:31:54;;;;;;;36.75;27.85;;;;;;;9.46;56.81;97548.72;4927534;29;20079;-80
2022/03/17 10:34:24;;;;;;;37.05;27.33;;;;;;;9.41;56.88;97541.34;4927905;29;20111;-79
2022/03/17 10:36:51;;;;;;;38.17;27.20;;;;;;;9.35;57.32;97552.38;4926191;29;20048;-83
2022/03/17 10:39:19;;;;;;;36.60;26.60;;;;;;;9.39;57.60;97552.88;4927084;29;20060;-81
2022/03/17 10:41:49;;;;;;;36.38;26.33;;;;;;;9.41;57.77;97554.38;4926589;29;20052;-81
2022/03/17 10:44:17;;;;;;;36.00;26.45;;;;;;;9.45;57.59;97547.91;4927932;29;20549;-78
2022/03/17 10:47:01;;;;;;;34.85;27.10;;;;;;;9.50;57.52;97547.44;4926148;29;20048;-78
2022/03/17 10:49:29;;;;;;;38.75;27.00;;;;;;;9.51;57.13;97556.06;4927870;29;20311;-78
2022/03/17 10:51:58;;;;;;;34.65;25.58;;;;;;;9.48;57.16;97550.19;4930235;29;20456;-81
2022/03/17 10:54:25;;;;;;;35.67;26.65;;;;;;;9.51;57.35;97549.09;4926023;29;20052;-81
2022/03/17 10:57:02;;;;;;;37.38;26.52;;;;;;;9.56;57.34;97551.25;4924075;29;20544;-79
2022/03/17 10:59:42;;;;;;;41.28;26.90;;;;;;;9.63;57.51;97549.66;4924660;29;20044;-81
2022/03/17 11:02:13;;;;;;;37.15;25.20;;;;;;;9.68;57.26;97563.03;4931336;29;20052;-83
2022/03/17 11:04:43;;;;;;;34.47;25.88;;;;;;;9.72;57.41;97566.97;4929951;29;20048;-83
2022/03/17 11:07:14;;;;;;;36.05;25.08;;;;;;;9.78;57.62;97568.97;4929714;29;20051;-83
2022/03/17 11:09:43;;;;;;;34.85;26.45;;;;;;;9.84;59.38;97570.97;4931405;29;20056;-86
2022/03/17 11:12:12;;;;;;;38.80;27.40;;;;;;;9.92;57.55;97564.16;4931041;29;20052;-86
2022/03/17 11:14:42;;;;;;;36.95;26.65;;;;;;;9.92;56.95;97574.59;4931183;29;20055;-82
2022/03/17 11:17:14;;;;;;;37.97;25.50;;;;;;;9.92;56.99;97575.41;4930990;29;20063;-83
2022/03/17 11:19:44;;;;;;;35.05;26.90;;;;;;;9.96;57.47;97573.31;4932066;29;20150;-80
2022/03/17 11:22:16;;;;;;;39.33;28.60;;;;;;;10.02;56.85;97572.72;4932151;29;20050;-84
2022/03/17 11:24:43;;;;;;;35.23;26.63;;;;;;;10.05;56.91;97569.78;4931347;29;20052;-82
2022/03/17 11:27:12;;;;;;;33.97;25.63;;;;;;;10.05;56.62;97567.97;4931313;29;20062;-83
2022/03/17 11:29:45;;;;;;;35.30;25.05;;;;;;;10.08;56.50;97572.91;4932573;29;20359;-83
2022/03/17 11:32:29;;;;;;;35.67;26.45;;;;;;;10.14;56.42;97581.06;4932392;29;20052;-86
2022/03/17 11:35:09;;;;;;;39.83;26.23;;;;;;;10.15;56.46;97575.72;4926449;29;20062;-85
2022/03/17 11:37:37;;;;;;;33.83;25.02;;;;;;;10.19;57.04;97577.03;4923721;29;20066;-83
2022/03/17 11:40:08;;;;;;;31.65;23.70;;;;;;;10.27;57.65;97589.28;4927612;29;20059;-86
2022/03/17 11:42:42;;;;;;;33.78;24.40;;;;;;;10.36;58.15;97577.94;4928304;29;20051;-80
2022/03/17 11:45:31;;;;;;;35.15;24.90;;;;;;;10.47;57.24;97580.31;4928500;29;20056;-84
2022/03/17 11:48:01;;;;;;;32.03;24.88;;;;;;;10.58;57.15;97576.56;4932405;29;20115;-84